createdAt,value
2023-03-23T15:59:04.871Z,98508.67
2023-03-23T16:01:48.622Z,98515.98
2023-03-23T16:04:24.661Z,98517.58
2023-03-23T16:07:02.030Z,98517.91
2023-03-23T16:09:37.219Z,98519.90
2023-03-23T16:12:15.480Z,98519.92
2023-03-23T16:14:51.462Z,98522.05
2023-03-23T16:17:27.464Z,98524.88
2023-03-23T16:20:04.616Z,98527.66
2023-03-23T16:22:46.686Z,98525.66
2023-03-23T16:25:29.353Z,98527.59
2023-03-23T16:28:02.209Z,98528.45
2023-03-23T16:30:37.906Z,98532.64
2023-03-23T16:33:10.948Z,98532.76
2023-03-23T16:35:44.291Z,98535.55
2023-03-23T16:38:20.596Z,98535.33
2023-03-23T16:40:53.485Z,98537.59
2023-03-23T16:43:26.743Z,98534.14
2023-03-23T16:46:00.342Z,98533.55
2023-03-23T16:48:33.562Z,98532.91
2023-03-23T16:51:06.667Z,98535.77
2023-03-23T16:53:39.498Z,98535.98
2023-03-23T16:56:12.363Z,98536.92
2023-03-23T16:58:46.305Z,98544.63
2023-03-23T17:01:22.225Z,98545.95
2023-03-23T17:03:57.815Z,98541.66
2023-03-23T17:06:30.724Z,98543.71
2023-03-23T17:09:08.451Z,98545.55
2023-03-23T17:11:43.376Z,98546.85
2023-03-23T17:14:26.264Z,98546.92
2023-03-23T17:16:59.247Z,98544.34
2023-03-23T17:19:37.166Z,98547.94
2023-03-23T17:22:10.017Z,98546.61
2023-03-23T17:24:42.852Z,98546.92
2023-03-23T17:27:15.649Z,98545.27
2023-03-23T17:29:52.005Z,98545.55
2023-03-23T17:32:26.206Z,98550.58
2023-03-23T17:34:59.083Z,98557.27
2023-03-23T17:37:33.351Z,98553.65
2023-03-23T17:40:10.228Z,98554.08
2023-03-23T17:42:43.230Z,98557.20
2023-03-23T17:45:19.066Z,98551.66
2023-03-23T17:47:54.283Z,98556.13
2023-03-23T17:50:30.470Z,98549.48
2023-03-23T17:53:03.227Z,98553.80
2023-03-23T17:55:41.134Z,98552.44
2023-03-23T17:58:14.377Z,98553.23
2023-03-23T18:00:47.065Z,98555.31
2023-03-23T18:03:19.927Z,98556.49
2023-03-23T18:05:52.859Z,98552.00
2023-03-23T18:08:26.231Z,98552.61
2023-03-23T18:11:02.820Z,98550.22
2023-03-23T18:13:37.135Z,98551.16
2023-03-23T18:16:11.293Z,98552.82
2023-03-23T18:18:44.049Z,98557.14
2023-03-23T18:21:18.310Z,98557.16
2023-03-23T18:23:58.844Z,98552.63
2023-03-23T18:26:42.873Z,98549.14
2023-03-23T18:29:18.411Z,98552.50
2023-03-23T18:31:51.139Z,98554.29
2023-03-23T18:34:26.708Z,98551.52
2023-03-23T18:36:59.335Z,98552.98
2023-03-23T18:39:37.085Z,98554.98
2023-03-23T18:42:12.928Z,98552.71
2023-03-23T18:44:46.050Z,98556.30
2023-03-23T18:47:21.593Z,98556.39
2023-03-23T18:49:59.688Z,98558.77
2023-03-23T18:52:33.050Z,98563.39
2023-03-23T18:55:10.832Z,98561.31
2023-03-23T18:57:45.071Z,98559.42
2023-03-23T19:00:38.720Z,98554.73
2023-03-23T19:03:13.891Z,98543.88
2023-03-23T19:05:51.515Z,98550.63
2023-03-23T19:08:24.483Z,98558.46
2023-03-23T19:11:09.994Z,98561.89
2023-03-23T19:13:53.867Z,98562.09
2023-03-23T19:16:32.495Z,98567.48
2023-03-23T19:19:07.712Z,98570.91
2023-03-23T19:21:46.953Z,98575.98
2023-03-23T19:24:26.348Z,98578.56
2023-03-23T19:27:11.017Z,98579.16
2023-03-23T19:29:45.112Z,98578.70
2023-03-23T19:32:17.962Z,98576.61
2023-03-23T19:34:51.330Z,98580.13
2023-03-23T19:37:24.377Z,98581.16
2023-03-23T19:40:01.511Z,98582.43
2023-03-23T19:42:42.422Z,98579.64
2023-03-23T19:45:18.087Z,98581.41
2023-03-23T19:47:53.710Z,98584.63
2023-03-23T19:50:29.283Z,98591.18
2023-03-23T19:53:01.972Z,98595.27
2023-03-23T19:55:37.146Z,98598.08
2023-03-23T19:58:15.624Z,98595.23
2023-03-23T20:00:48.979Z,98596.53
2023-03-23T20:03:25.946Z,98601.15
2023-03-23T20:06:05.996Z,98598.34
2023-03-23T20:08:43.983Z,98599.41
2023-03-23T20:11:18.721Z,98601.04
2023-03-23T20:13:51.677Z,98599.11
2023-03-23T20:16:26.622Z,98596.30
2023-03-23T20:19:00.457Z,98594.23
2023-03-23T20:21:35.618Z,98594.27
2023-03-23T20:24:08.620Z,98595.01
2023-03-23T20:26:44.893Z,98597.87
2023-03-23T20:29:17.542Z,98591.55
2023-03-23T20:31:51.006Z,98584.37
2023-03-23T20:34:31.021Z,98582.35
2023-03-23T20:37:10.801Z,98585.63
2023-03-23T20:39:48.820Z,98577.25
2023-03-23T20:42:21.651Z,98574.73
2023-03-23T20:44:54.362Z,98578.20
2023-03-23T20:47:32.656Z,98574.43
2023-03-23T20:50:07.342Z,98570.66
2023-03-23T20:52:43.000Z,98571.30
2023-03-23T20:55:35.798Z,98573.02
2023-03-23T20:58:08.792Z,98576.30
2023-03-23T21:00:42.745Z,98575.88
2023-03-23T21:03:21.138Z,98571.91
2023-03-23T21:05:53.901Z,98569.70
2023-03-23T21:08:47.916Z,98574.00
2023-03-23T21:11:25.813Z,98578.30
2023-03-23T21:14:02.454Z,98579.95
2023-03-23T21:16:35.674Z,98585.25
2023-03-23T21:19:09.228Z,98585.94
2023-03-23T21:21:56.017Z,98585.91
2023-03-23T21:24:31.541Z,98580.75
2023-03-23T21:27:05.430Z,98580.35
2023-03-23T21:29:47.504Z,98576.98
2023-03-23T21:32:24.863Z,98575.91
2023-03-23T21:35:02.489Z,98576.63
2023-03-23T21:37:39.127Z,98579.63
2023-03-23T21:40:16.940Z,98589.30
2023-03-23T21:43:02.798Z,98592.96
2023-03-23T21:45:39.409Z,98592.61
2023-03-23T21:48:16.005Z,98595.42
2023-03-23T21:50:48.780Z,98596.10
2023-03-23T21:53:27.095Z,98600.30
2023-03-23T21:56:00.351Z,98599.55
2023-03-23T21:58:33.067Z,98598.13
2023-03-23T22:01:06.650Z,98592.41
2023-03-23T22:03:40.401Z,98589.20
2023-03-23T22:06:16.225Z,98593.73
2023-03-23T22:08:50.430Z,98590.69
2023-03-23T22:11:28.524Z,98591.02
2023-03-23T22:14:05.520Z,98593.17
2023-03-23T22:16:38.702Z,98588.06
2023-03-23T22:19:11.489Z,98587.04
2023-03-23T22:21:44.821Z,98585.98
2023-03-23T22:24:18.845Z,98584.28
2023-03-23T22:26:51.536Z,98583.77
2023-03-23T22:29:24.442Z,98580.30
2023-03-23T22:31:57.104Z,98576.77
2023-03-23T22:34:39.937Z,98577.84
2023-03-23T22:37:13.669Z,98580.16
2023-03-23T22:39:46.301Z,98582.06
2023-03-23T22:42:20.418Z,98581.50
2023-03-23T22:44:53.115Z,98578.14
2023-03-23T22:47:25.750Z,98585.30
2023-03-23T22:49:58.544Z,98588.83
2023-03-23T22:52:32.425Z,98584.08
2023-03-23T22:55:10.233Z,98585.66
2023-03-23T22:57:50.797Z,98587.23
2023-03-23T23:00:23.623Z,98585.84
2023-03-23T23:02:59.436Z,98586.71
2023-03-23T23:05:32.058Z,98591.96
2023-03-23T23:08:12.362Z,98592.83
2023-03-23T23:10:47.205Z,98590.32
2023-03-23T23:13:40.311Z,98589.80
2023-03-23T23:16:17.348Z,98591.73
2023-03-23T23:18:50.278Z,98595.27
2023-03-23T23:21:28.980Z,98591.55
2023-03-23T23:24:12.154Z,98595.25
2023-03-23T23:26:54.057Z,98594.04
2023-03-23T23:29:27.465Z,98595.46
2023-03-23T23:32:02.167Z,98595.34
2023-03-23T23:34:34.973Z,98591.00
2023-03-23T23:37:09.120Z,98591.37
2023-03-23T23:39:42.638Z,98587.70
2023-03-23T23:42:15.737Z,98586.16
2023-03-23T23:44:48.456Z,98587.80
2023-03-23T23:47:21.746Z,98589.44
2023-03-23T23:49:54.557Z,98588.06
2023-03-23T23:52:38.458Z,98584.38
2023-03-23T23:55:16.663Z,98586.15
2023-03-23T23:58:02.018Z,98586.38
